createdAt,value
2018-07-17T00:00:26.167Z,98.05
2018-07-17T00:01:26.130Z,98.24
2018-07-17T00:02:26.122Z,98.24
2018-07-17T00:03:26.052Z,97.76
2018-07-17T00:04:26.009Z,98.24
2018-07-17T00:05:25.975Z,99.29
2018-07-17T00:06:25.936Z,99.87
2018-07-17T00:07:25.922Z,99.68
2018-07-17T00:08:25.866Z,99.96
2018-07-17T00:09:25.830Z,99.77
2018-07-17T00:10:25.793Z,99.68
2018-07-17T00:11:25.753Z,99.58
2018-07-17T00:12:25.713Z,99.58
2018-07-17T00:13:25.691Z,99.58
2018-07-17T00:14:25.637Z,99.20
2018-07-17T00:15:25.612Z,99.29
2018-07-17T00:16:25.567Z,99.29
2018-07-17T00:17:25.524Z,97.86
2018-07-17T00:18:25.512Z,97.86
2018-07-17T00:19:25.471Z,97.95
2018-07-17T00:20:25.418Z,96.89
2018-07-17T00:21:35.937Z,96.89
2018-07-17T00:22:25.335Z,97.19
2018-07-17T00:23:25.320Z,96.89
2018-07-17T00:24:25.265Z,96.22
2018-07-17T00:25:25.223Z,96.70
2018-07-17T00:26:25.195Z,96.51
2018-07-17T00:27:25.153Z,97.19
2018-07-17T00:28:25.132Z,97.76
2018-07-17T00:29:25.076Z,96.99
2018-07-17T00:30:25.043Z,96.51
2018-07-17T00:31:25.002Z,97.56
2018-07-17T00:32:24.965Z,96.51
2018-07-17T00:33:24.955Z,96.61
2018-07-17T00:34:24.886Z,96.61
2018-07-17T00:35:24.853Z,95.94
2018-07-17T00:36:24.808Z,97.09
2018-07-17T00:37:24.772Z,96.80
2018-07-17T00:38:24.754Z,97.47
2018-07-17T00:39:24.724Z,97.95
2018-07-17T00:40:24.667Z,99.49
2018-07-17T00:41:24.626Z,93.54
2018-07-17T00:42:24.585Z,94.31
2018-07-17T00:43:24.559Z,96.13
2018-07-17T00:44:24.542Z,96.42
2018-07-17T00:45:24.479Z,96.37
2018-07-17T00:46:24.433Z,96.32
2018-07-17T00:47:24.397Z,97.52
2018-07-17T00:48:24.358Z,98.91
2018-07-17T00:49:24.323Z,98.00
2018-07-17T00:50:24.313Z,96.94
2018-07-17T00:51:24.259Z,96.47
2018-07-17T00:52:24.217Z,97.52
2018-07-17T00:53:24.178Z,98.53
2018-07-17T00:54:24.133Z,99.99
2018-07-17T00:55:24.121Z,99.99
2018-07-17T00:56:24.059Z,99.99
2018-07-17T00:57:24.021Z,99.99
2018-07-17T00:58:23.990Z,99.20
2018-07-17T00:59:23.952Z,99.20
2018-07-17T01:00:23.936Z,98.91
2018-07-17T01:01:23.870Z,99.20
2018-07-17T01:02:23.838Z,99.99
2018-07-17T01:03:23.801Z,99.96
2018-07-17T01:04:23.767Z,99.58
2018-07-17T01:05:23.728Z,99.99
2018-07-17T01:06:23.713Z,99.99
2018-07-17T01:07:23.647Z,99.99
2018-07-17T01:08:23.608Z,99.99
2018-07-17T01:09:23.569Z,99.99
2018-07-17T01:10:23.539Z,99.49
2018-07-17T01:11:23.528Z,99.99
2018-07-17T01:12:31.993Z,99.99
2018-07-17T01:13:23.424Z,99.87
2018-07-17T01:14:23.395Z,99.68
2018-07-17T01:15:23.354Z,99.99
2018-07-17T01:16:23.307Z,99.99
2018-07-17T01:17:23.298Z,99.99
2018-07-17T01:18:23.233Z,99.99
2018-07-17T01:19:23.198Z,99.99
2018-07-17T01:20:23.167Z,99.99
2018-07-17T01:21:23.127Z,99.49
2018-07-17T01:22:23.115Z,99.58
2018-07-17T01:23:23.052Z,99.10
2018-07-17T01:24:23.008Z,99.77
2018-07-17T01:25:22.970Z,98.28
2018-07-17T01:26:22.932Z,99.24
2018-07-17T01:27:22.902Z,99.99
2018-07-17T01:28:22.888Z,99.99
2018-07-17T01:29:22.826Z,99.99
2018-07-17T01:30:22.781Z,99.99
2018-07-17T01:31:22.746Z,99.82
2018-07-17T01:32:22.716Z,99.63
2018-07-17T01:33:22.698Z,99.99
2018-07-17T01:34:22.640Z,99.99
2018-07-17T01:35:22.602Z,99.99
2018-07-17T01:36:22.561Z,99.99
2018-07-17T01:37:22.526Z,99.99
2018-07-17T01:38:22.510Z,99.99
2018-07-17T01:39:22.442Z,99.99
2018-07-17T01:40:22.415Z,99.99
2018-07-17T01:41:22.379Z,99.99
2018-07-17T01:42:22.346Z,99.99
2018-07-17T01:43:22.326Z,99.99
2018-07-17T01:44:22.257Z,99.99
2018-07-17T01:45:22.217Z,99.99
2018-07-17T01:46:22.188Z,99.99
2018-07-17T01:47:22.159Z,99.99
2018-07-17T01:48:22.105Z,99.99
2018-07-17T01:49:22.091Z,99.99
2018-07-17T01:50:22.029Z,99.99
2018-07-17T01:51:21.994Z,99.99
2018-07-17T01:52:21.961Z,99.99
2018-07-17T01:53:21.946Z,99.99
2018-07-17T01:54:21.883Z,99.99
2018-07-17T01:55:21.849Z,99.99
2018-07-17T01:56:21.803Z,99.99
2018-07-17T01:57:21.770Z,99.99
2018-07-17T01:58:21.752Z,99.99
2018-07-17T01:59:21.695Z,99.99
2018-07-17T02:00:21.667Z,99.99
2018-07-17T02:01:21.622Z,99.99
2018-07-17T02:02:21.575Z,99.99
2018-07-17T02:03:21.538Z,99.99
2018-07-17T02:04:21.530Z,99.96
2018-07-17T02:05:32.549Z,99.99
2018-07-17T02:06:21.428Z,99.99
2018-07-17T02:07:21.390Z,99.99
2018-07-17T02:08:21.354Z,99.99
2018-07-17T02:09:21.339Z,99.99
2018-07-17T02:10:21.287Z,99.99
2018-07-17T02:11:21.246Z,99.99
2018-07-17T02:12:21.210Z,99.99
2018-07-17T02:13:21.174Z,99.99
2018-07-17T02:14:21.148Z,99.99
2018-07-17T02:15:21.089Z,99.99
2018-07-17T02:16:21.059Z,99.99
2018-07-17T02:17:21.024Z,99.99
2018-07-17T02:18:20.977Z,99.99
2018-07-17T02:19:20.964Z,99.99
2018-07-17T02:20:20.902Z,99.58
2018-07-17T02:21:20.870Z,99.99
2018-07-17T02:22:20.832Z,99.99
2018-07-17T02:23:31.100Z,99.68
2018-07-17T02:24:20.753Z,99.49
2018-07-17T02:25:20.739Z,99.99
2018-07-17T02:26:20.678Z,99.96
2018-07-17T02:27:20.642Z,99.49
2018-07-17T02:28:20.608Z,99.99
2018-07-17T02:29:20.570Z,99.99
2018-07-17T02:30:20.548Z,99.99
2018-07-17T02:31:20.488Z,99.99
2018-07-17T02:32:20.462Z,99.99
2018-07-17T02:33:20.419Z,99.99
2018-07-17T02:34:20.379Z,99.99
2018-07-17T02:35:20.372Z,99.99
2018-07-17T02:36:20.304Z,99.99
2018-07-17T02:37:20.265Z,99.99
2018-07-17T02:38:20.224Z,99.99
2018-07-17T02:39:20.189Z,99.99
2018-07-17T02:40:20.158Z,99.99
2018-07-17T02:41:20.144Z,99.99
2018-07-17T02:42:20.168Z,99.99
2018-07-17T02:43:20.052Z,99.99
2018-07-17T02:44:20.000Z,99.99
2018-07-17T02:45:19.965Z,99.99
2018-07-17T02:46:19.954Z,99.99
2018-07-17T02:47:19.896Z,99.99
2018-07-17T02:48:19.849Z,99.99
2018-07-17T02:49:19.816Z,99.99
2018-07-17T02:50:19.775Z,99.99
2018-07-17T02:51:19.764Z,99.99
2018-07-17T02:52:19.708Z,99.99
2018-07-17T02:53:19.672Z,99.99
2018-07-17T02:54:19.639Z,99.99
2018-07-17T02:55:19.595Z,99.99
2018-07-17T02:56:19.582Z,99.99
2018-07-17T02:57:19.513Z,98.28
2018-07-17T02:58:19.478Z,97.71
2018-07-17T02:59:19.444Z,96.85
2018-07-17T03:00:19.409Z,99.24
2018-07-17T03:01:19.372Z,98.05
2018-07-17T03:02:19.371Z,95.94
2018-07-17T03:03:19.288Z,93.54
2018-07-17T03:04:19.257Z,92.48
2018-07-17T03:05:19.230Z,97.56
2018-07-17T03:06:19.186Z,99.99
2018-07-17T03:07:19.169Z,99.99
2018-07-17T03:08:19.103Z,99.99
2018-07-17T03:09:19.073Z,99.99
2018-07-17T03:10:19.035Z,93.15
2018-07-17T03:11:18.996Z,93.92
2018-07-17T03:12:18.984Z,95.46
2018-07-17T03:13:18.925Z,93.54
2018-07-17T03:14:18.882Z,95.31
2018-07-17T03:15:18.850Z,96.70
2018-07-17T03:16:18.804Z,97.81
2018-07-17T03:17:28.666Z,99.01
2018-07-17T03:18:18.727Z,96.42
2018-07-17T03:19:18.690Z,93.15
2018-07-17T03:20:18.654Z,91.76
2018-07-17T03:21:18.615Z,91.28
2018-07-17T03:22:18.590Z,90.22
2018-07-17T03:23:18.572Z,90.03
2018-07-17T03:24:18.511Z,89.94
2018-07-17T03:25:18.472Z,89.75
2018-07-17T03:26:18.430Z,88.59
2018-07-17T03:27:18.392Z,90.80
2018-07-17T03:28:18.376Z,93.10
2018-07-17T03:29:18.316Z,92.33
2018-07-17T03:30:18.285Z,91.19
2018-07-17T03:31:18.247Z,93.01
2018-07-17T03:32:18.208Z,93.97
2018-07-17T03:33:28.201Z,94.26
2018-07-17T03:34:18.142Z,93.20
2018-07-17T03:35:18.099Z,94.07
2018-07-17T03:36:18.064Z,95.50
2018-07-17T03:37:18.024Z,96.85
2018-07-17T03:38:17.981Z,97.81
2018-07-17T03:39:17.970Z,96.75
2018-07-17T03:40:17.915Z,95.41
2018-07-17T03:41:17.880Z,93.68
2018-07-17T03:42:17.898Z,93.10
2018-07-17T03:43:17.804Z,93.59
2018-07-17T03:44:17.787Z,94.93
2018-07-17T03:45:17.719Z,95.31
2018-07-17T03:46:17.690Z,94.64
2018-07-17T03:47:17.653Z,95.41
2018-07-17T03:48:17.611Z,93.30
2018-07-17T03:49:17.602Z,95.50
2018-07-17T03:50:17.536Z,95.12
2018-07-17T03:51:28.719Z,94.64
2018-07-17T03:52:17.475Z,95.31
2018-07-17T03:53:17.433Z,95.31
2018-07-17T03:54:17.388Z,96.08
2018-07-17T03:55:17.371Z,95.70
2018-07-17T03:56:17.313Z,94.64
2018-07-17T03:57:17.276Z,95.21
2018-07-17T03:58:17.245Z,95.70
2018-07-17T03:59:17.206Z,95.12
2018-07-17T04:00:17.184Z,96.08
2018-07-17T04:01:17.130Z,96.75
2018-07-17T04:02:17.099Z,94.74
2018-07-17T04:03:17.060Z,95.21
2018-07-17T04:04:17.024Z,96.18
2018-07-17T04:05:17.015Z,96.75
2018-07-17T04:06:16.939Z,96.56
2018-07-17T04:07:16.907Z,96.75
2018-07-17T04:08:16.867Z,95.12
2018-07-17T04:09:16.830Z,94.45
2018-07-17T04:10:16.810Z,94.16
2018-07-17T04:11:16.787Z,96.18
2018-07-17T04:12:16.728Z,96.75
2018-07-17T04:13:16.726Z,95.79
2018-07-17T04:14:16.645Z,95.60
2018-07-17T04:15:16.606Z,94.64
2018-07-17T04:16:16.596Z,94.54
2018-07-17T04:17:16.539Z,97.24
2018-07-17T04:18:16.495Z,96.85
2018-07-17T04:19:16.465Z,97.42
2018-07-17T04:20:16.420Z,96.85
2018-07-17T04:21:16.411Z,97.14
2018-07-17T04:22:16.357Z,96.94
2018-07-17T04:23:16.320Z,96.37
2018-07-17T04:24:16.275Z,94.54
2018-07-17T04:25:16.244Z,96.56
2018-07-17T04:26:25.778Z,97.86
2018-07-17T04:27:16.160Z,96.66
2018-07-17T04:28:16.132Z,95.31
2018-07-17T04:29:16.094Z,95.45
2018-07-17T04:30:16.045Z,95.94
2018-07-17T04:31:16.012Z,96.61
2018-07-17T04:32:16.005Z,96.32
2018-07-17T04:33:15.944Z,94.78
2018-07-17T04:34:15.905Z,94.21
2018-07-17T04:35:15.866Z,94.40
2018-07-17T04:36:15.824Z,94.40
2018-07-17T04:37:15.811Z,94.11
2018-07-17T04:38:15.753Z,93.44
2018-07-17T04:39:15.714Z,92.67
2018-07-17T04:40:15.682Z,93.96
2018-07-17T04:41:15.645Z,95.03
2018-07-17T04:42:15.634Z,94.93
2018-07-17T04:43:15.571Z,94.73
2018-07-17T04:44:26.797Z,95.31
2018-07-17T04:45:15.500Z,95.03
2018-07-17T04:46:15.455Z,94.83
2018-07-17T04:47:15.415Z,93.53
2018-07-17T04:48:15.400Z,91.89
2018-07-17T04:49:15.341Z,88.09
2018-07-17T04:50:15.310Z,87.03
2018-07-17T04:51:15.275Z,87.76
2018-07-17T04:52:15.239Z,87.76
2018-07-17T04:53:15.221Z,86.69
2018-07-17T04:54:15.157Z,84.56
2018-07-17T04:55:15.121Z,81.85
2018-07-17T04:56:15.085Z,79.77
2018-07-17T04:57:15.047Z,78.69
2018-07-17T04:58:15.047Z,75.45
2018-07-17T04:59:14.982Z,75.06
2018-07-17T05:00:14.940Z,74.23
2018-07-17T05:01:14.903Z,73.55
2018-07-17T05:02:25.353Z,72.24
2018-07-17T05:03:14.836Z,71.36
2018-07-17T05:04:14.819Z,70.53
2018-07-17T05:05:14.766Z,69.98
2018-07-17T05:06:14.720Z,70.27
2018-07-17T05:07:14.687Z,69.15
2018-07-17T05:08:14.657Z,68.18
2018-07-17T05:09:14.644Z,66.72
2018-07-17T05:10:14.640Z,66.95
2018-07-17T05:11:14.553Z,67.05
2018-07-17T05:12:14.510Z,65.92
2018-07-17T05:13:14.475Z,65.24
2018-07-17T05:14:14.470Z,64.59
2018-07-17T05:15:14.411Z,63.75
2018-07-17T05:16:14.404Z,64.01
2018-07-17T05:17:14.339Z,62.85
2018-07-17T05:18:14.301Z,63.07
2018-07-17T05:19:14.295Z,63.17
2018-07-17T05:20:14.265Z,64.14
2018-07-17T05:21:24.442Z,64.30
2018-07-17T05:22:14.164Z,64.40
2018-07-17T05:23:14.131Z,64.50
2018-07-17T05:24:14.102Z,63.85
2018-07-17T05:25:14.082Z,63.46
2018-07-17T05:26:14.034Z,63.85
2018-07-17T05:27:14.003Z,64.14
2018-07-17T05:28:13.961Z,64.26
2018-07-17T05:29:13.930Z,62.74
2018-07-17T05:30:13.923Z,61.19
2018-07-17T05:31:13.870Z,61.32
2018-07-17T05:32:13.833Z,60.25
2018-07-17T05:33:13.807Z,60.35
2018-07-17T05:34:13.762Z,60.54
2018-07-17T05:35:13.846Z,60.64
2018-07-17T05:36:13.697Z,60.15
2018-07-17T05:37:13.661Z,59.89
2018-07-17T05:38:13.661Z,59.50
2018-07-17T05:39:23.927Z,60.38
2018-07-17T05:40:13.564Z,60.38
2018-07-17T05:41:13.555Z,59.41
2018-07-17T05:42:13.506Z,58.82
2018-07-17T05:43:13.471Z,58.62
2018-07-17T05:44:13.434Z,57.32
2018-07-17T05:45:13.398Z,57.51
2018-07-17T05:46:13.391Z,56.57
2018-07-17T05:47:13.333Z,56.09
2018-07-17T05:48:13.312Z,55.23
2018-07-17T05:49:13.275Z,55.01
2018-07-17T05:50:13.244Z,54.55
2018-07-17T05:51:13.231Z,54.06
2018-07-17T05:52:13.173Z,55.43
2018-07-17T05:53:13.141Z,56.18
2018-07-17T05:54:13.107Z,56.30
2018-07-17T05:55:13.073Z,55.52
2018-07-17T05:56:13.077Z,56.01
2018-07-17T05:57:13.019Z,55.62
2018-07-17T05:58:24.461Z,55.94
2018-07-17T05:59:12.957Z,54.97
2018-07-17T06:00:12.924Z,54.09
2018-07-17T06:01:12.889Z,54.87
2018-07-17T06:02:12.871Z,54.09
2018-07-17T06:03:12.866Z,53.73
2018-07-17T06:04:12.794Z,53.92
2018-07-17T06:05:12.762Z,54.34
2018-07-17T06:06:12.723Z,53.17
2018-07-17T06:07:12.713Z,51.80
2018-07-17T06:08:12.663Z,51.82
2018-07-17T06:09:12.633Z,51.17
2018-07-17T06:10:12.671Z,51.14
2018-07-17T06:11:12.572Z,51.07
2018-07-17T06:12:12.560Z,52.02
2018-07-17T06:13:12.507Z,53.17
2018-07-17T06:14:12.482Z,53.17
2018-07-17T06:15:12.447Z,54.63
2018-07-17T06:16:12.420Z,53.07
2018-07-17T06:17:22.016Z,53.42
2018-07-17T06:18:12.349Z,52.73
2018-07-17T06:19:12.316Z,52.83
2018-07-17T06:20:12.293Z,51.42
2018-07-17T06:21:12.265Z,50.76
2018-07-17T06:22:12.326Z,49.97
2018-07-17T06:23:12.201Z,48.99
2018-07-17T06:24:12.164Z,50.88
2018-07-17T06:25:12.175Z,48.41
2018-07-17T06:26:12.107Z,49.24
2018-07-17T06:27:12.080Z,47.28
2018-07-17T06:28:12.080Z,47.18
2018-07-17T06:29:12.022Z,47.40
2018-07-17T06:30:11.991Z,46.59
2018-07-17T06:31:11.947Z,48.14
2018-07-17T06:32:11.926Z,48.09
2018-07-17T06:33:11.897Z,48.41
2018-07-17T06:34:11.885Z,46.52
2018-07-17T06:35:11.836Z,47.36
2018-07-17T06:36:11.797Z,48.82
2018-07-17T06:37:11.770Z,48.19
2018-07-17T06:38:11.734Z,45.86
2018-07-17T06:39:11.730Z,46.01
2018-07-17T06:40:11.691Z,46.72
2018-07-17T06:41:11.654Z,47.26
2018-07-17T06:42:11.632Z,49.09
2018-07-17T06:43:11.592Z,50.15
2018-07-17T06:44:11.598Z,50.10
2018-07-17T06:45:11.542Z,49.65
2018-07-17T06:46:11.512Z,49.24
2018-07-17T06:47:11.491Z,50.78
2018-07-17T06:48:11.446Z,51.02
2018-07-17T06:49:11.451Z,53.44
2018-07-17T06:50:11.421Z,55.01
2018-07-17T06:51:11.358Z,56.64
2018-07-17T06:52:11.339Z,57.75
2018-07-17T06:53:11.305Z,60.05
2018-07-17T06:54:11.437Z,61.25
2018-07-17T06:55:11.268Z,63.46
2018-07-17T06:56:11.212Z,64.59
2018-07-17T06:57:11.183Z,65.14
2018-07-17T06:58:11.155Z,67.14
2018-07-17T06:59:11.128Z,66.37
2018-07-17T07:00:11.120Z,66.47
2018-07-17T07:01:11.060Z,67.11
2018-07-17T07:02:11.030Z,69.27
2018-07-17T07:03:11.004Z,68.40
2018-07-17T07:04:10.972Z,68.18
2018-07-17T07:05:10.994Z,68.85
2018-07-17T07:06:10.913Z,70.21
2018-07-17T07:07:10.885Z,70.31
2018-07-17T07:08:10.845Z,71.44
2018-07-17T07:09:10.806Z,72.30
2018-07-17T07:10:10.806Z,73.08
2018-07-17T07:11:10.760Z,72.02
2018-07-17T07:12:10.722Z,72.66
2018-07-17T07:13:10.690Z,72.69
2018-07-17T07:14:10.649Z,72.69
2018-07-17T07:15:10.642Z,72.89
2018-07-17T07:16:10.597Z,73.18
2018-07-17T07:17:10.558Z,72.69
2018-07-17T07:18:10.534Z,70.66
2018-07-17T07:19:10.493Z,71.04
2018-07-17T07:20:10.459Z,71.04
2018-07-17T07:21:10.453Z,71.53
2018-07-17T07:22:10.383Z,70.95
2018-07-17T07:23:10.402Z,71.24
2018-07-17T07:24:10.337Z,71.04
2018-07-17T07:25:10.297Z,71.53
2018-07-17T07:26:10.288Z,71.18
2018-07-17T07:27:10.231Z,69.82
2018-07-17T07:28:10.192Z,69.24
2018-07-17T07:29:10.163Z,70.31
2018-07-17T07:30:10.133Z,69.82
2018-07-17T07:31:10.123Z,70.15
2018-07-17T07:32:10.065Z,68.95
2018-07-17T07:33:10.029Z,69.63
2018-07-17T07:34:09.987Z,69.08
2018-07-17T07:35:09.989Z,68.37
2018-07-17T07:36:09.931Z,68.56
2018-07-17T07:37:09.909Z,69.18
2018-07-17T07:38:09.868Z,68.95
2018-07-17T07:39:09.838Z,69.15
2018-07-17T07:40:09.805Z,69.15
2018-07-17T07:41:09.785Z,68.27
2018-07-17T07:42:09.727Z,69.05
2018-07-17T07:43:09.696Z,69.24
2018-07-17T07:44:09.672Z,69.43
2018-07-17T07:45:09.635Z,69.08
2018-07-17T07:46:09.625Z,67.88
2018-07-17T07:47:09.563Z,68.21
2018-07-17T07:48:09.536Z,68.18
2018-07-17T07:49:09.583Z,69.63
2018-07-17T07:50:09.474Z,69.63
2018-07-17T07:51:09.462Z,68.37
2018-07-17T07:52:09.402Z,69.57
2018-07-17T07:53:09.365Z,69.08
2018-07-17T07:54:09.331Z,68.21
2018-07-17T07:55:09.302Z,68.30
2018-07-17T07:56:09.299Z,68.12
2018-07-17T07:57:09.246Z,68.24
2018-07-17T07:58:09.218Z,68.44
2018-07-17T07:59:09.203Z,67.57
2018-07-17T08:00:09.139Z,66.24
2018-07-17T08:01:09.132Z,63.95
2018-07-17T08:02:09.089Z,65.56
2018-07-17T08:03:09.047Z,64.43
2018-07-17T08:04:09.017Z,64.53
2018-07-17T08:05:08.975Z,64.33
2018-07-17T08:06:08.968Z,63.68
2018-07-17T08:07:08.909Z,62.52
2018-07-17T08:08:08.893Z,62.19
2018-07-17T08:09:08.847Z,63.65
2018-07-17T08:10:08.821Z,63.95
2018-07-17T08:11:08.784Z,63.75
2018-07-17T08:12:18.649Z,63.36
2018-07-17T08:13:08.723Z,64.62
2018-07-17T08:14:08.692Z,65.43
2018-07-17T08:15:08.658Z,63.88
2018-07-17T08:16:08.621Z,62.10
2018-07-17T08:17:08.614Z,62.62
2018-07-17T08:18:08.566Z,62.55
2018-07-17T08:19:08.529Z,60.28
2018-07-17T08:20:08.493Z,59.41
2018-07-17T08:21:08.465Z,58.56
2018-07-17T08:22:08.449Z,57.84
2018-07-17T08:23:08.391Z,57.89
2018-07-17T08:24:08.360Z,57.56
2018-07-17T08:25:08.329Z,54.66
2018-07-17T08:26:08.305Z,53.22
2018-07-17T08:27:08.299Z,53.54
2018-07-17T08:28:08.259Z,51.98
2018-07-17T08:29:08.213Z,52.05
2018-07-17T08:30:08.175Z,52.15
2018-07-17T08:31:08.144Z,52.68
2018-07-17T08:32:18.139Z,53.24
2018-07-17T08:33:08.085Z,54.21
2018-07-17T08:34:08.058Z,53.27
2018-07-17T08:35:08.025Z,53.66
2018-07-17T08:36:08.010Z,54.05
2018-07-17T08:37:07.975Z,54.24
2018-07-17T08:38:07.969Z,53.85
2018-07-17T08:39:07.914Z,54.21
2018-07-17T08:40:07.882Z,55.32
2018-07-17T08:41:07.874Z,54.73
2018-07-17T08:42:07.821Z,55.22
2018-07-17T08:43:07.869Z,54.07
2018-07-17T08:44:07.779Z,52.87
2018-07-17T08:45:07.744Z,53.56
2018-07-17T08:46:07.712Z,54.36
2018-07-17T08:47:07.685Z,51.66
2018-07-17T08:48:07.689Z,51.04
2018-07-17T08:49:07.659Z,52.83
2018-07-17T08:50:07.634Z,51.17
2018-07-17T08:51:17.657Z,50.78
2018-07-17T08:52:07.547Z,50.65
2018-07-17T08:53:07.516Z,51.04
2018-07-17T08:54:07.601Z,52.90
2018-07-17T08:55:07.464Z,51.63
2018-07-17T08:56:07.437Z,51.63
2018-07-17T08:57:07.413Z,51.02
2018-07-17T08:58:07.376Z,52.39
2018-07-17T08:59:07.371Z,54.75
2018-07-17T09:00:07.328Z,53.54
2018-07-17T09:01:07.300Z,51.42
2018-07-17T09:02:07.266Z,50.71
2018-07-17T09:03:07.238Z,50.12
2018-07-17T09:04:07.237Z,49.92
2018-07-17T09:05:07.185Z,49.04
2018-07-17T09:06:07.167Z,51.03
2018-07-17T09:07:07.136Z,50.56
2018-07-17T09:08:07.112Z,49.14
2018-07-17T09:09:07.111Z,48.36
2018-07-17T09:10:07.052Z,47.75
2018-07-17T09:11:17.201Z,49.70
2018-07-17T09:12:07.006Z,47.36
2018-07-17T09:13:07.053Z,46.75
2018-07-17T09:14:06.950Z,47.82
2018-07-17T09:15:06.943Z,48.80
2018-07-17T09:16:06.900Z,49.46
2018-07-17T09:17:06.876Z,48.97
2018-07-17T09:18:06.853Z,49.29
2018-07-17T09:19:06.829Z,49.07
2018-07-17T09:20:06.813Z,50.12
2018-07-17T09:21:06.773Z,51.10
2018-07-17T09:22:06.739Z,50.71
2018-07-17T09:23:06.717Z,50.42
2018-07-17T09:24:06.696Z,50.49
2018-07-17T09:25:06.700Z,52.25
2018-07-17T09:26:06.644Z,52.27
2018-07-17T09:27:06.617Z,49.43
2018-07-17T09:28:06.606Z,49.53
2018-07-17T09:29:06.558Z,49.63
2018-07-17T09:30:06.536Z,49.63
2018-07-17T09:31:06.535Z,49.41
2018-07-17T09:32:16.752Z,49.04
2018-07-17T09:33:06.453Z,49.16
2018-07-17T09:34:06.432Z,48.87
2018-07-17T09:35:06.404Z,50.37
2018-07-17T09:36:06.401Z,49.90
2018-07-17T09:37:06.353Z,46.59
2018-07-17T09:38:06.320Z,46.52
2018-07-17T09:39:06.325Z,46.13
2018-07-17T09:40:06.267Z,46.01
2018-07-17T09:41:06.271Z,45.72
2018-07-17T09:42:06.225Z,46.81
2018-07-17T09:43:06.199Z,45.59
2018-07-17T09:44:06.166Z,45.69
2018-07-17T09:45:06.145Z,46.65
2018-07-17T09:46:06.125Z,46.72
2018-07-17T09:47:06.118Z,46.72
2018-07-17T09:48:06.070Z,47.60
2018-07-17T09:49:06.051Z,47.50
2018-07-17T09:50:06.016Z,47.31
2018-07-17T09:51:05.988Z,47.41
2018-07-17T09:52:05.989Z,47.14
2018-07-17T09:53:05.941Z,47.33
2018-07-17T09:54:05.919Z,48.02
2018-07-17T09:55:05.899Z,46.55
2018-07-17T09:56:05.870Z,45.69
2018-07-17T09:57:05.868Z,46.67
2018-07-17T09:58:05.815Z,45.59
2018-07-17T09:59:05.791Z,47.97
2018-07-17T10:00:05.776Z,47.50
2018-07-17T10:01:05.751Z,45.86
2018-07-17T10:02:05.753Z,45.15
2018-07-17T10:03:05.696Z,45.15
2018-07-17T10:04:05.677Z,43.68
2018-07-17T10:05:05.645Z,45.86
2018-07-17T10:06:05.631Z,44.19
2018-07-17T10:07:05.605Z,43.90
2018-07-17T10:08:05.601Z,46.44
2018-07-17T10:09:05.562Z,43.58
2018-07-17T10:10:05.526Z,43.46
2018-07-17T10:11:05.511Z,43.63
2018-07-17T10:12:16.804Z,44.49
2018-07-17T10:13:05.494Z,45.89
2018-07-17T10:14:05.440Z,45.30
2018-07-17T10:15:05.411Z,45.37
2018-07-17T10:16:05.392Z,45.16
2018-07-17T10:17:05.369Z,45.97
2018-07-17T10:18:05.347Z,46.67
2018-07-17T10:19:05.346Z,45.30
2018-07-17T10:20:05.377Z,44.32
2018-07-17T10:21:05.269Z,44.03
2018-07-17T10:22:05.267Z,45.52
2018-07-17T10:23:05.222Z,45.56
2018-07-17T10:24:05.231Z,43.12
2018-07-17T10:25:05.183Z,42.13
2018-07-17T10:26:05.161Z,41.74
2018-07-17T10:27:05.142Z,41.74
2018-07-17T10:28:05.105Z,42.41
2018-07-17T10:29:05.106Z,41.72
2018-07-17T10:30:05.071Z,43.46
2018-07-17T10:31:05.075Z,42.76
2018-07-17T10:32:05.017Z,41.07
2018-07-17T10:33:04.989Z,42.32
2018-07-17T10:34:04.962Z,45.97
2018-07-17T10:35:04.941Z,44.71
2018-07-17T10:36:04.926Z,45.69
2018-07-17T10:37:04.927Z,42.56
2018-07-17T10:38:04.876Z,42.64
2018-07-17T10:39:04.850Z,43.03
2018-07-17T10:40:04.825Z,44.32
2018-07-17T10:41:04.796Z,43.34
2018-07-17T10:42:04.797Z,43.46
2018-07-17T10:43:04.751Z,44.05
2018-07-17T10:44:04.741Z,43.48
2018-07-17T10:45:04.712Z,43.12
2018-07-17T10:46:04.713Z,40.94
2018-07-17T10:47:04.659Z,42.72
2018-07-17T10:48:04.642Z,41.76
2018-07-17T10:49:04.620Z,39.09
2018-07-17T10:50:04.597Z,40.64
2018-07-17T10:51:04.574Z,39.15
2018-07-17T10:52:14.391Z,39.45
2018-07-17T10:53:04.519Z,39.76
2018-07-17T10:54:04.507Z,40.14
2018-07-17T10:55:04.487Z,41.92
2018-07-17T10:56:04.466Z,41.72
2018-07-17T10:57:04.457Z,41.41
2018-07-17T10:58:04.404Z,41.60
2018-07-17T10:59:04.379Z,41.80
2018-07-17T11:00:04.365Z,41.72
2018-07-17T11:01:04.441Z,41.92
2018-07-17T11:02:04.344Z,40.43
2018-07-17T11:03:04.289Z,41.70
2018-07-17T11:04:04.271Z,40.92
2018-07-17T11:05:04.244Z,40.23
2018-07-17T11:06:04.227Z,39.72
2018-07-17T11:07:04.204Z,40.92
2018-07-17T11:08:04.201Z,40.80
2018-07-17T11:09:04.156Z,41.88
2018-07-17T11:10:04.133Z,40.70
2018-07-17T11:11:04.102Z,42.15
2018-07-17T11:12:13.919Z,41.96
2018-07-17T11:13:04.059Z,43.24
2018-07-17T11:14:04.028Z,43.85
2018-07-17T11:15:04.005Z,41.62
2018-07-17T11:16:03.988Z,41.13
2018-07-17T11:17:03.972Z,42.41
2018-07-17T11:18:03.964Z,40.35
2018-07-17T11:19:03.916Z,41.05
2018-07-17T11:20:03.886Z,39.27
2018-07-17T11:21:03.867Z,39.06
2018-07-17T11:22:03.840Z,39.43
2018-07-17T11:23:03.843Z,42.56
2018-07-17T11:24:03.798Z,43.56
2018-07-17T11:25:03.779Z,40.33
2018-07-17T11:26:03.758Z,40.60
2018-07-17T11:27:03.729Z,41.68
2018-07-17T11:28:03.703Z,42.29
2018-07-17T11:29:03.702Z,40.53
2018-07-17T11:30:03.665Z,42.31
2018-07-17T11:31:03.640Z,39.35
2018-07-17T11:32:03.643Z,40.53
2018-07-17T11:33:13.943Z,38.47
2018-07-17T11:34:03.592Z,39.45
2018-07-17T11:35:03.548Z,40.64
2018-07-17T11:36:03.522Z,40.74
2018-07-17T11:37:03.499Z,39.07
2018-07-17T11:38:03.465Z,38.39
2018-07-17T11:39:03.443Z,38.76
2018-07-17T11:40:03.441Z,38.78
2018-07-17T11:41:03.393Z,39.37
2018-07-17T11:42:03.378Z,39.88
2018-07-17T11:43:03.355Z,38.60
2018-07-17T11:44:03.324Z,39.61
2018-07-17T11:45:03.322Z,38.92
2018-07-17T11:46:03.287Z,38.23
2018-07-17T11:47:03.261Z,38.82
2018-07-17T11:48:03.242Z,38.23
2018-07-17T11:49:03.216Z,38.04
2018-07-17T11:50:03.209Z,39.90
2018-07-17T11:51:03.161Z,38.72
2018-07-17T11:52:03.135Z,39.01
2018-07-17T11:53:03.113Z,39.61
2018-07-17T11:54:03.101Z,39.01
2018-07-17T11:55:03.071Z,39.41
2018-07-17T11:56:03.072Z,39.17
2018-07-17T11:57:03.028Z,39.06
2018-07-17T11:58:02.994Z,38.76
2018-07-17T11:59:02.997Z,40.43
2018-07-17T12:00:02.955Z,40.29
2018-07-17T12:01:02.956Z,40.37
2018-07-17T12:02:02.901Z,41.62
2018-07-17T12:03:02.873Z,43.26
2018-07-17T12:04:02.847Z,41.62
2018-07-17T12:05:02.822Z,41.74
2018-07-17T12:06:02.822Z,41.76
2018-07-17T12:07:02.782Z,40.29
2018-07-17T12:08:02.748Z,41.09
2018-07-17T12:09:02.723Z,40.21
2018-07-17T12:10:02.688Z,41.07
2018-07-17T12:11:12.508Z,40.90
2018-07-17T12:12:02.646Z,42.64
2018-07-17T12:13:02.657Z,41.09
2018-07-17T12:14:02.579Z,40.41
2018-07-17T12:15:02.564Z,41.68
2018-07-17T12:16:02.561Z,40.29
2018-07-17T12:17:02.510Z,42.44
2018-07-17T12:18:02.478Z,42.07
2018-07-17T12:19:02.454Z,40.31
2018-07-17T12:20:02.556Z,39.23
2018-07-17T12:21:02.417Z,40.19
2018-07-17T12:22:02.368Z,40.76
2018-07-17T12:23:02.341Z,40.19
2018-07-17T12:24:02.321Z,40.29
2018-07-17T12:25:02.292Z,40.29
2018-07-17T12:26:02.292Z,40.21
2018-07-17T12:27:02.237Z,40.68
2018-07-17T12:28:02.255Z,41.46
2018-07-17T12:29:02.180Z,42.52
2018-07-17T12:30:02.160Z,41.23
2018-07-17T12:31:02.130Z,42.11
2018-07-17T12:32:02.122Z,41.86
2018-07-17T12:33:02.071Z,42.13
2018-07-17T12:34:02.038Z,42.42
2018-07-17T12:35:02.054Z,43.40
2018-07-17T12:36:01.994Z,41.83
2018-07-17T12:37:01.986Z,41.82
2018-07-17T12:38:01.936Z,42.48
2018-07-17T12:39:01.938Z,42.11
2018-07-17T12:40:01.872Z,40.35
2018-07-17T12:41:01.842Z,41.54
2018-07-17T12:42:01.849Z,39.29
2018-07-17T12:43:01.790Z,40.27
2018-07-17T12:44:01.764Z,40.17
2018-07-17T12:45:01.752Z,40.39
2018-07-17T12:46:01.703Z,41.86
2018-07-17T12:47:01.681Z,42.56
2018-07-17T12:48:01.679Z,42.66
2018-07-17T12:49:01.632Z,41.19
2018-07-17T12:50:01.735Z,42.46
2018-07-17T12:51:01.579Z,42.17
2018-07-17T12:52:01.541Z,40.48